Strona główna
METAR-TAF:

METAR-TAF

Lotnisko :

Port lotniczy Cần Thơ

Cần Thơ, Wietnam

Szerokość geograficzna: 10-05-07N, Długość geograficzna: 105-42-43E, wysokość: 3 m

Aktualna obserwacja pogody

Raport powstał 33 minut temu, godzina 23:00 UTC
Wiatr 4 kt od wschód
Temperatura 23°C
Wilgotność 89%
Ciśnienie 1014 hPa
Widzialność 10 km lub więcej
Brak chmur poniżej 1500 m i brak chmur cumulonimbus

METAR: VVCT 232300Z 08004KT CAVOK 23/21 Q1014 NOSIG

czas: 06:33 (23:33 UTC)

Prognoza

Raport powstał 6 godziny i 33 minut temu, godzina 17:00 UTC
Prognoza ważna od 23 godzina 18 UTC do 24 godzina 18 UTC
Wiatr 10 kt od wschód
Widzialność 10 km lub więcej
Mało chmury na wysokości 1700 ft

TAF: VVCT 231700Z 2318/2418 10010KT 9999 FEW017

Obserwacja i prognoza pogody dla ponad 4000 lotnisk (raport METAR i TAF).

Dostępne stacje oznaczono żółtymi i czerwonymi punktami na mapie.

Najedź kursorem aby zobaczyć nazwę stacji.

Kliknij aby zobaczyć obserwacje i prognozy pogody.

Aby zmienić mapę: kliknij na zielony przycisk z czarnym krzyżykiem, aby powiększyć; na zielony przycisk z myślnikiem, aby pomniejszyć; na zielone strzałki, aby przejść do map sąsiednich.


METAR-TAF: